createdAt,value
2017-08-05T00:01:46.014Z,3.43
2017-08-05T00:04:14.341Z,3.00
2017-08-05T00:06:43.230Z,4.07
2017-08-05T00:09:11.636Z,3.43
2017-08-05T00:11:39.959Z,3.40
2017-08-05T00:14:08.712Z,3.53
2017-08-05T00:16:37.055Z,3.50
2017-08-05T00:19:06.178Z,3.07
2017-08-05T00:21:34.974Z,3.30
2017-08-05T00:24:03.320Z,3.33
2017-08-05T00:26:31.649Z,2.87
2017-08-05T00:29:00.516Z,3.33
2017-08-05T00:31:28.845Z,2.97
2017-08-05T00:33:57.182Z,3.23
2017-08-05T00:36:26.022Z,3.03
2017-08-05T00:38:54.358Z,4.23
2017-08-05T00:41:22.711Z,2.73
2017-08-05T00:43:51.447Z,2.50
2017-08-05T00:46:19.794Z,3.57
2017-08-05T00:48:48.117Z,3.20
2017-08-05T00:51:16.935Z,3.60
2017-08-05T00:53:45.278Z,2.93
2017-08-05T00:56:13.621Z,3.57
2017-08-05T00:58:42.582Z,3.27
2017-08-05T01:01:10.937Z,4.43
2017-08-05T01:03:40.039Z,3.27
2017-08-05T01:06:09.662Z,3.37
2017-08-05T01:08:38.007Z,4.23
2017-08-05T01:11:06.340Z,3.20
2017-08-05T01:13:35.311Z,3.00
2017-08-05T01:16:03.657Z,3.90
2017-08-05T01:18:32.014Z,3.17
2017-08-05T01:21:00.658Z,3.80
2017-08-05T01:23:29.012Z,3.63
2017-08-05T01:25:57.367Z,3.57
2017-08-05T01:28:26.028Z,3.13
2017-08-05T01:30:54.368Z,3.17
2017-08-05T01:33:22.743Z,3.33
2017-08-05T01:35:51.514Z,3.70
2017-08-05T01:38:19.861Z,3.33
2017-08-05T01:40:48.205Z,3.97
2017-08-05T01:43:16.945Z,3.33
2017-08-05T01:45:45.281Z,3.87
2017-08-05T01:48:13.627Z,3.73
2017-08-05T01:50:42.272Z,3.77
2017-08-05T01:53:10.620Z,3.53
2017-08-05T01:55:38.971Z,3.70
2017-08-05T01:58:07.653Z,3.47
2017-08-05T02:00:35.997Z,3.70
2017-08-05T02:03:04.341Z,3.53
2017-08-05T02:05:32.993Z,3.60
2017-08-05T02:08:01.357Z,4.00
2017-08-05T02:10:29.685Z,3.00
2017-08-05T02:12:58.319Z,4.23
2017-08-05T02:15:26.642Z,3.93
2017-08-05T02:17:55.255Z,3.90
2017-08-05T02:20:24.459Z,4.00
2017-08-05T02:22:52.809Z,3.63
2017-08-05T02:25:21.147Z,3.90
2017-08-05T02:27:49.976Z,3.40
2017-08-05T02:30:18.323Z,4.70
2017-08-05T02:32:46.668Z,4.57
2017-08-05T02:35:15.346Z,4.20
2017-08-05T02:37:43.686Z,4.10
2017-08-05T02:40:12.030Z,4.43
2017-08-05T02:42:40.822Z,3.40
2017-08-05T02:45:09.230Z,4.33
2017-08-05T02:47:38.325Z,4.60
2017-08-05T02:50:07.935Z,4.30
2017-08-05T02:52:36.276Z,4.43
2017-08-05T02:55:04.624Z,3.77
2017-08-05T02:57:33.245Z,3.50
2017-08-05T03:00:01.607Z,4.40
2017-08-05T03:02:29.942Z,3.90
2017-08-05T03:04:58.791Z,4.53
2017-08-05T03:07:27.151Z,4.40
2017-08-05T03:09:55.491Z,4.70
2017-08-05T03:12:24.273Z,4.77
2017-08-05T03:14:52.609Z,4.57
2017-08-05T03:17:20.957Z,4.90
2017-08-05T03:19:49.720Z,4.50
2017-08-05T03:22:18.069Z,4.23
2017-08-05T03:24:46.422Z,4.97
2017-08-05T03:27:15.117Z,4.23
2017-08-05T03:29:43.496Z,5.00
2017-08-05T03:32:11.830Z,4.37
2017-08-05T03:34:40.519Z,4.40
2017-08-05T03:37:08.853Z,4.67
2017-08-05T03:39:37.181Z,4.13
2017-08-05T03:42:05.811Z,4.20
2017-08-05T03:44:34.135Z,4.60
2017-08-05T03:47:02.479Z,4.30
2017-08-05T03:49:32.136Z,4.80
2017-08-05T03:52:00.486Z,4.70
2017-08-05T03:54:30.370Z,4.30
2017-08-05T03:56:59.203Z,5.10
2017-08-05T03:59:27.558Z,4.30
2017-08-05T04:01:55.900Z,4.23
2017-08-05T04:04:24.552Z,4.30
2017-08-05T04:06:52.901Z,4.10
2017-08-05T04:09:21.241Z,4.47
2017-08-05T04:11:50.295Z,4.87
2017-08-05T04:14:18.626Z,3.90
2017-08-05T04:16:46.949Z,5.00
2017-08-05T04:19:15.586Z,4.00
2017-08-05T04:21:43.931Z,4.87
2017-08-05T04:24:12.263Z,4.20
2017-08-05T04:26:41.182Z,4.03
2017-08-05T04:29:09.537Z,3.77
2017-08-05T04:31:38.672Z,4.20
2017-08-05T04:34:07.612Z,4.13
2017-08-05T04:36:35.951Z,3.50
2017-08-05T04:39:04.302Z,3.70
2017-08-05T04:41:32.923Z,4.10
2017-08-05T04:44:01.260Z,4.33
2017-08-05T04:46:30.367Z,3.87
2017-08-05T04:48:59.802Z,4.40
2017-08-05T04:51:28.136Z,3.20
2017-08-05T04:53:57.246Z,4.13
2017-08-05T04:56:27.294Z,3.73
2017-08-05T04:58:55.671Z,5.00
2017-08-05T05:01:24.012Z,3.30
2017-08-05T05:03:52.906Z,3.80
2017-08-05T05:06:21.241Z,3.10
2017-08-05T05:08:49.592Z,3.30
2017-08-05T05:11:18.239Z,3.57
2017-08-05T05:13:47.383Z,4.80
2017-08-05T05:16:15.718Z,3.50
2017-08-05T05:18:44.606Z,3.87
2017-08-05T05:21:12.950Z,3.00
2017-08-05T05:23:41.292Z,3.30
2017-08-05T05:26:09.948Z,3.57
2017-08-05T05:28:38.328Z,2.90
2017-08-05T05:31:06.677Z,3.77
2017-08-05T05:33:35.514Z,3.90
2017-08-05T05:36:03.870Z,3.33
2017-08-05T05:38:32.226Z,4.00
2017-08-05T05:41:01.690Z,3.60
2017-08-05T05:43:30.033Z,5.20
2017-08-05T05:45:58.372Z,3.90
2017-08-05T05:48:27.232Z,3.80
2017-08-05T05:50:55.586Z,3.00
2017-08-05T05:53:24.685Z,3.40
2017-08-05T05:55:54.318Z,3.23
2017-08-05T05:58:22.682Z,3.80
2017-08-05T06:00:51.050Z,3.10
2017-08-05T06:03:19.954Z,3.23
2017-08-05T06:05:48.295Z,3.83
2017-08-05T06:08:16.644Z,3.43
2017-08-05T06:10:45.381Z,3.73
2017-08-05T06:13:13.713Z,4.60
2017-08-05T06:15:42.045Z,3.60
2017-08-05T06:18:11.453Z,3.50
2017-08-05T06:20:39.794Z,3.10
2017-08-05T06:23:08.145Z,3.13
2017-08-05T06:25:37.108Z,3.20
2017-08-05T06:28:05.453Z,4.20
2017-08-05T06:30:33.814Z,4.50
2017-08-05T06:33:02.554Z,3.60
2017-08-05T06:35:30.907Z,3.57
2017-08-05T06:37:59.256Z,3.67
2017-08-05T06:40:28.007Z,3.87
2017-08-05T06:42:56.344Z,3.87
2017-08-05T06:45:24.689Z,3.97
2017-08-05T06:47:53.460Z,4.20
2017-08-05T06:50:21.956Z,3.70
2017-08-05T06:52:50.279Z,3.97
2017-08-05T06:55:19.115Z,3.23
2017-08-05T06:57:47.511Z,3.33
2017-08-05T07:00:15.872Z,3.77
2017-08-05T07:02:44.750Z,4.20
2017-08-05T07:05:13.109Z,4.70
2017-08-05T07:07:41.476Z,4.60
2017-08-05T07:10:10.270Z,4.70
2017-08-05T07:12:38.605Z,4.30
2017-08-05T07:15:06.972Z,4.30
2017-08-05T07:17:35.619Z,4.10
2017-08-05T07:20:04.032Z,4.97
2017-08-05T07:22:32.429Z,5.23
2017-08-05T07:25:01.184Z,3.63
2017-08-05T07:27:29.717Z,3.70
2017-08-05T07:29:58.146Z,4.93
2017-08-05T07:32:27.612Z,3.83
2017-08-05T07:34:55.980Z,3.50
2017-08-05T07:37:24.339Z,3.73
2017-08-05T07:39:53.002Z,4.50
2017-08-05T07:42:21.511Z,3.53
2017-08-05T07:44:49.903Z,3.80
2017-08-05T07:47:18.750Z,4.10
2017-08-05T07:49:47.207Z,4.00
2017-08-05T07:52:15.569Z,3.97
2017-08-05T07:54:44.567Z,3.50
2017-08-05T07:57:13.312Z,3.47
2017-08-05T07:59:42.118Z,3.80
2017-08-05T08:02:11.090Z,4.20
2017-08-05T08:04:39.491Z,3.97
2017-08-05T08:07:08.068Z,3.60
2017-08-05T08:09:37.067Z,3.77
2017-08-05T08:12:05.651Z,3.47
2017-08-05T08:14:34.151Z,4.00
2017-08-05T08:17:03.305Z,4.17
2017-08-05T08:19:31.803Z,3.60
2017-08-05T08:22:00.345Z,4.67
2017-08-05T08:24:30.076Z,3.73
2017-08-05T08:26:58.588Z,4.10
2017-08-05T08:29:27.043Z,3.90
2017-08-05T08:31:55.844Z,4.67
2017-08-05T08:34:24.249Z,3.90
2017-08-05T08:36:52.603Z,3.83
2017-08-05T08:39:21.375Z,4.13
2017-08-05T08:41:49.771Z,3.80
2017-08-05T08:44:18.205Z,3.50
2017-08-05T08:46:47.006Z,3.40
2017-08-05T08:49:15.391Z,4.00
2017-08-05T08:51:43.776Z,3.60
2017-08-05T08:54:12.507Z,3.70
2017-08-05T08:56:40.842Z,4.33
2017-08-05T08:59:09.439Z,3.47
2017-08-05T09:01:38.418Z,3.30
2017-08-05T09:04:06.770Z,4.17
2017-08-05T09:06:35.118Z,4.47
2017-08-05T09:09:03.761Z,4.10
2017-08-05T09:11:32.890Z,3.10
2017-08-05T09:14:01.254Z,3.90
2017-08-05T09:16:29.922Z,3.73
2017-08-05T09:18:58.260Z,3.80
2017-08-05T09:21:26.620Z,3.53
2017-08-05T09:23:55.332Z,3.63
2017-08-05T09:26:23.714Z,4.50
2017-08-05T09:28:52.089Z,3.70
2017-08-05T09:31:20.754Z,3.60
2017-08-05T09:33:49.098Z,3.63
2017-08-05T09:36:17.468Z,3.57
2017-08-05T09:38:46.100Z,3.33
2017-08-05T09:41:14.470Z,3.60
2017-08-05T09:43:42.826Z,3.70
2017-08-05T09:46:11.510Z,4.10
2017-08-05T09:48:39.855Z,3.77
2017-08-05T09:51:08.202Z,3.53
2017-08-05T09:53:36.851Z,4.10
2017-08-05T09:56:05.217Z,3.90
2017-08-05T09:58:33.630Z,3.40
2017-08-05T10:01:02.881Z,3.33
2017-08-05T10:03:32.075Z,3.13
2017-08-05T10:06:00.441Z,3.60
2017-08-05T10:08:29.470Z,3.40
2017-08-05T10:10:57.812Z,4.03
2017-08-05T10:13:26.194Z,4.60
2017-08-05T10:15:54.859Z,5.87
2017-08-05T10:18:23.214Z,4.00
2017-08-05T10:20:51.591Z,3.90
2017-08-05T10:23:20.296Z,4.23
2017-08-05T10:25:48.666Z,4.87
2017-08-05T10:28:17.025Z,4.23
2017-08-05T10:30:45.802Z,5.10
2017-08-05T10:33:14.171Z,4.87
2017-08-05T10:35:43.282Z,3.90
2017-08-05T10:38:11.900Z,6.30
2017-08-05T10:40:40.252Z,5.67
2017-08-05T10:43:08.604Z,4.57
2017-08-05T10:45:37.304Z,4.20
2017-08-05T10:48:05.674Z,4.50
2017-08-05T10:50:34.031Z,5.40
2017-08-05T10:53:02.828Z,4.60
2017-08-05T10:55:31.176Z,5.13
2017-08-05T10:57:59.548Z,4.60
2017-08-05T11:00:28.209Z,6.20
2017-08-05T11:02:56.592Z,4.93
2017-08-05T11:05:24.939Z,4.67
2017-08-05T11:07:53.689Z,4.30
2017-08-05T11:10:22.067Z,4.87
2017-08-05T11:12:50.416Z,4.77
2017-08-05T11:15:19.483Z,5.10
2017-08-05T11:17:47.823Z,5.00
2017-08-05T11:20:16.179Z,4.87
2017-08-05T11:22:44.958Z,6.30
2017-08-05T11:25:13.362Z,6.10
2017-08-05T11:27:41.721Z,4.70
2017-08-05T11:30:10.372Z,4.23
2017-08-05T11:32:38.754Z,4.60
2017-08-05T11:35:07.104Z,5.40
2017-08-05T11:37:36.071Z,5.33
2017-08-05T11:40:04.463Z,6.37
2017-08-05T11:42:32.826Z,6.20
2017-08-05T11:45:01.488Z,5.40
2017-08-05T11:47:29.896Z,5.33
2017-08-05T11:49:58.258Z,5.40
2017-08-05T11:52:26.992Z,5.03
2017-08-05T11:54:55.365Z,4.70
2017-08-05T11:57:23.725Z,4.60
2017-08-05T11:59:52.612Z,6.10
2017-08-05T12:02:20.959Z,4.90
2017-08-05T12:04:49.317Z,5.93
2017-08-05T12:07:17.993Z,4.33
2017-08-05T12:09:46.335Z,5.00
2017-08-05T12:12:14.693Z,4.80
2017-08-05T12:14:43.470Z,5.00
2017-08-05T12:17:11.827Z,5.93
2017-08-05T12:19:40.175Z,5.70
2017-08-05T12:22:09.006Z,5.57
2017-08-05T12:24:38.118Z,5.10
2017-08-05T12:27:07.349Z,5.20
2017-08-05T12:29:36.828Z,5.03
2017-08-05T12:32:05.171Z,5.43
2017-08-05T12:34:33.616Z,5.00
2017-08-05T12:37:02.489Z,5.30
2017-08-05T12:39:30.888Z,5.20
2017-08-05T12:41:59.241Z,5.10
2017-08-05T12:44:28.029Z,5.30
2017-08-05T12:46:56.402Z,5.73
2017-08-05T12:49:24.758Z,5.90
2017-08-05T12:51:54.418Z,6.07
2017-08-05T12:54:22.767Z,5.07
2017-08-05T12:56:51.106Z,4.93
2017-08-05T12:59:19.866Z,5.57
2017-08-05T13:01:48.209Z,5.90
2017-08-05T13:04:17.343Z,5.07
2017-08-05T13:06:46.306Z,5.97
2017-08-05T13:09:14.674Z,5.70
2017-08-05T13:11:43.773Z,5.60
2017-08-05T13:14:12.553Z,5.70
2017-08-05T13:16:40.894Z,6.37
2017-08-05T13:19:09.221Z,5.90
2017-08-05T13:21:38.632Z,5.50
2017-08-05T13:24:06.983Z,6.33
2017-08-05T13:26:35.340Z,5.80
2017-08-05T13:29:04.085Z,5.20
2017-08-05T13:31:32.431Z,4.77
2017-08-05T13:34:01.530Z,6.23
2017-08-05T13:36:31.182Z,5.43
2017-08-05T13:38:59.540Z,5.23
2017-08-05T13:41:27.889Z,4.97
2017-08-05T13:43:56.803Z,4.63
2017-08-05T13:46:25.148Z,4.90
2017-08-05T13:48:53.508Z,5.07
2017-08-05T13:51:23.083Z,5.40
2017-08-05T13:53:51.448Z,4.80
2017-08-05T13:56:19.795Z,5.23
2017-08-05T13:58:48.415Z,5.60
2017-08-05T14:01:16.745Z,5.00
2017-08-05T14:03:45.103Z,4.93
2017-08-05T14:06:14.170Z,5.20
2017-08-05T14:08:42.521Z,4.93
2017-08-05T14:11:10.882Z,4.10
2017-08-05T14:13:39.629Z,4.53
2017-08-05T14:16:07.981Z,5.03
2017-08-05T14:18:37.096Z,5.17
2017-08-05T14:21:05.779Z,4.83
2017-08-05T14:23:34.138Z,4.83
2017-08-05T14:26:02.483Z,5.00
2017-08-05T14:28:31.202Z,4.93
2017-08-05T14:31:00.327Z,6.00
2017-08-05T14:33:28.712Z,4.73
2017-08-05T14:35:57.797Z,5.43
2017-08-05T14:38:26.159Z,5.50
2017-08-05T14:40:55.270Z,4.60
2017-08-05T14:43:23.902Z,4.47
2017-08-05T14:45:52.275Z,3.93
2017-08-05T14:48:20.620Z,3.90
2017-08-05T14:50:49.399Z,4.10
2017-08-05T14:53:17.748Z,4.13
2017-08-05T14:55:46.132Z,4.63
2017-08-05T14:58:15.129Z,4.60
2017-08-05T15:00:43.502Z,4.70
2017-08-05T15:03:12.636Z,4.90
2017-08-05T15:05:41.426Z,4.30
2017-08-05T15:08:09.766Z,4.70
2017-08-05T15:10:38.903Z,3.90
2017-08-05T15:13:07.694Z,3.80
2017-08-05T15:15:36.026Z,4.40
2017-08-05T15:18:04.391Z,4.43
2017-08-05T15:20:33.168Z,4.33
2017-08-05T15:23:01.541Z,4.97
2017-08-05T15:25:29.880Z,4.70
2017-08-05T15:27:58.606Z,4.30
2017-08-05T15:30:26.952Z,4.67
2017-08-05T15:32:55.294Z,4.70
2017-08-05T15:35:24.238Z,5.37
2017-08-05T15:37:52.571Z,8.33
2017-08-05T15:40:20.946Z,5.50
2017-08-05T15:42:49.781Z,4.87
2017-08-05T15:45:18.157Z,4.40
2017-08-05T15:47:46.496Z,5.80
2017-08-05T15:50:15.335Z,4.70
2017-08-05T15:52:43.713Z,5.90
2017-08-05T15:55:12.073Z,6.17
2017-08-05T15:57:40.728Z,8.20
2017-08-05T16:00:09.114Z,9.20
2017-08-05T16:02:37.458Z,8.33
2017-08-05T16:05:06.558Z,7.23
2017-08-05T16:07:34.906Z,7.03
2017-08-05T16:10:03.264Z,6.60
2017-08-05T16:12:31.915Z,7.53
2017-08-05T16:15:00.288Z,8.67
2017-08-05T16:17:28.685Z,8.47
2017-08-05T16:19:57.508Z,8.50
2017-08-05T16:22:25.854Z,9.70
2017-08-05T16:24:54.216Z,9.70
2017-08-05T16:27:23.156Z,9.90
2017-08-05T16:29:51.556Z,10.73
2017-08-05T16:32:19.948Z,10.00
2017-08-05T16:34:48.628Z,10.90
2017-08-05T16:37:17.007Z,12.00
2017-08-05T16:39:45.384Z,10.70
2017-08-05T16:42:14.049Z,9.57
2017-08-05T16:44:42.432Z,9.73
2017-08-05T16:47:10.801Z,10.00
2017-08-05T16:49:39.688Z,9.63
2017-08-05T16:52:08.058Z,9.07
2017-08-05T16:54:37.200Z,8.70
2017-08-05T16:57:06.116Z,10.47
2017-08-05T16:59:34.473Z,9.70
2017-08-05T17:02:02.821Z,10.60
2017-08-05T17:04:32.020Z,9.33
2017-08-05T17:07:00.380Z,10.10
2017-08-05T17:09:28.742Z,9.50
2017-08-05T17:11:57.531Z,10.13
2017-08-05T17:14:25.903Z,10.20
2017-08-05T17:16:54.239Z,10.10
2017-08-05T17:19:22.881Z,9.67
2017-08-05T17:21:51.280Z,9.73
2017-08-05T17:24:19.666Z,10.10
2017-08-05T17:26:48.567Z,9.40
2017-08-05T17:29:16.918Z,10.97
2017-08-05T17:31:45.285Z,9.33
2017-08-05T17:34:14.342Z,10.67
2017-08-05T17:36:42.730Z,8.40
2017-08-05T17:39:11.088Z,8.80
2017-08-05T17:41:39.860Z,9.77
2017-08-05T17:44:08.229Z,9.13
2017-08-05T17:46:37.351Z,9.73
2017-08-05T17:49:06.356Z,8.33
2017-08-05T17:51:34.742Z,8.80
2017-08-05T17:54:04.015Z,8.53
2017-08-05T17:56:33.209Z,8.87
2017-08-05T17:59:01.618Z,8.90
2017-08-05T18:01:30.008Z,8.83
2017-08-05T18:03:58.733Z,9.90
2017-08-05T18:06:28.058Z,8.57
2017-08-05T18:08:56.434Z,9.43
2017-08-05T18:11:25.252Z,9.40
2017-08-05T18:13:53.616Z,9.60
2017-08-05T18:16:21.972Z,10.97
2017-08-05T18:18:50.641Z,9.93
2017-08-05T18:21:19.098Z,9.67
2017-08-05T18:23:47.435Z,10.73
2017-08-05T18:26:16.077Z,9.50
2017-08-05T18:28:44.440Z,10.27
2017-08-05T18:31:12.784Z,9.27
2017-08-05T18:33:41.681Z,8.73
2017-08-05T18:36:10.034Z,9.50
2017-08-05T18:38:39.167Z,8.77
2017-08-05T18:41:08.143Z,9.40
2017-08-05T18:43:36.521Z,10.20
2017-08-05T18:46:04.913Z,10.70
2017-08-05T18:48:33.864Z,9.93
2017-08-05T18:51:03.203Z,10.40
2017-08-05T18:53:32.414Z,10.30
2017-08-05T18:56:01.901Z,9.83
2017-08-05T18:58:30.271Z,8.97
2017-08-05T19:00:58.622Z,9.00
2017-08-05T19:03:27.445Z,8.97
2017-08-05T19:05:55.807Z,8.53
2017-08-05T19:08:24.167Z,8.43
2017-08-05T19:10:53.615Z,8.57
2017-08-05T19:13:21.954Z,9.13
2017-08-05T19:15:50.356Z,10.73
2017-08-05T19:18:19.053Z,9.20
2017-08-05T19:20:47.472Z,9.10
2017-08-05T19:23:15.868Z,8.73
2017-08-05T19:25:44.905Z,8.30
2017-08-05T19:28:13.267Z,7.77
2017-08-05T19:30:42.388Z,8.57
2017-08-05T19:33:11.127Z,9.50
2017-08-05T19:35:39.502Z,9.10
2017-08-05T19:38:07.855Z,8.73
2017-08-05T19:40:36.631Z,9.50
2017-08-05T19:43:05.000Z,9.30
2017-08-05T19:45:33.377Z,10.40
2017-08-05T19:48:02.748Z,8.50
2017-08-05T19:50:31.184Z,9.50
2017-08-05T19:52:59.559Z,10.07
2017-08-05T19:55:28.235Z,9.50
2017-08-05T19:57:56.595Z,10.43
2017-08-05T20:00:24.946Z,9.30
2017-08-05T20:02:53.628Z,10.53
2017-08-05T20:05:21.989Z,9.60
2017-08-05T20:07:50.343Z,10.30
2017-08-05T20:10:19.436Z,9.70
2017-08-05T20:12:47.789Z,11.17
2017-08-05T20:15:16.144Z,11.03
2017-08-05T20:17:45.067Z,11.17
2017-08-05T20:20:13.426Z,11.00
2017-08-05T20:22:41.788Z,11.63
2017-08-05T20:25:10.633Z,11.20
2017-08-05T20:27:38.994Z,9.60
2017-08-05T20:30:07.376Z,11.07
2017-08-05T20:32:36.247Z,11.00
2017-08-05T20:35:05.356Z,11.70
2017-08-05T20:37:33.711Z,10.40
2017-08-05T20:40:02.371Z,11.93
2017-08-05T20:42:30.739Z,11.97
2017-08-05T20:44:59.099Z,10.90
2017-08-05T20:47:27.890Z,13.97
2017-08-05T20:49:56.249Z,11.83
2017-08-05T20:52:24.597Z,12.10
2017-08-05T20:54:53.318Z,11.30
2017-08-05T20:57:21.683Z,10.73
2017-08-05T20:59:50.817Z,11.67
2017-08-05T21:02:19.467Z,12.57
2017-08-05T21:04:48.592Z,13.20
2017-08-05T21:07:16.951Z,13.00
2017-08-05T21:09:45.839Z,13.30
2017-08-05T21:12:14.224Z,12.57
2017-08-05T21:14:42.585Z,13.80
2017-08-05T21:17:11.309Z,12.03
2017-08-05T21:19:39.688Z,12.50
2017-08-05T21:22:08.037Z,12.27
2017-08-05T21:24:36.823Z,12.37
2017-08-05T21:27:05.968Z,12.67
2017-08-05T21:29:34.343Z,13.13
2017-08-05T21:32:03.092Z,13.00
2017-08-05T21:34:32.232Z,11.90
2017-08-05T21:37:00.587Z,13.00
2017-08-05T21:39:29.291Z,13.23
2017-08-05T21:41:57.648Z,13.57
2017-08-05T21:44:26.015Z,14.57
2017-08-05T21:46:54.919Z,13.50
2017-08-05T21:49:23.299Z,13.80
2017-08-05T21:51:51.645Z,12.23
2017-08-05T21:54:20.296Z,13.33
2017-08-05T21:56:48.670Z,13.87
2017-08-05T21:59:17.071Z,13.03
2017-08-05T22:01:45.807Z,13.87
2017-08-05T22:04:14.278Z,13.57
2017-08-05T22:06:42.664Z,12.83
2017-08-05T22:09:11.451Z,12.93
2017-08-05T22:11:39.810Z,12.83
2017-08-05T22:14:08.191Z,13.50
2017-08-05T22:16:37.138Z,12.43
2017-08-05T22:19:05.503Z,11.97
2017-08-05T22:21:33.862Z,11.30
2017-08-05T22:24:02.692Z,11.63
2017-08-05T22:26:31.069Z,10.67
2017-08-05T22:28:59.443Z,9.83
2017-08-05T22:31:28.336Z,10.13
2017-08-05T22:33:56.749Z,8.40
2017-08-05T22:36:25.119Z,8.10
2017-08-05T22:38:53.768Z,7.70
2017-08-05T22:41:22.123Z,8.90
2017-08-05T22:43:50.493Z,6.43
2017-08-05T22:46:20.150Z,7.50
2017-08-05T22:48:48.530Z,6.43
2017-08-05T22:51:16.958Z,6.90
2017-08-05T22:53:46.346Z,6.00
2017-08-05T22:56:14.685Z,5.83
2017-08-05T22:58:43.061Z,6.03
2017-08-05T23:01:11.820Z,5.10
2017-08-05T23:03:40.203Z,5.87
2017-08-05T23:06:08.565Z,4.70
2017-08-05T23:08:37.422Z,5.00
2017-08-05T23:11:05.786Z,5.90
2017-08-05T23:13:34.164Z,6.37
2017-08-05T23:16:02.801Z,5.90
2017-08-05T23:18:31.949Z,6.60
2017-08-05T23:21:00.319Z,6.47
2017-08-05T23:23:29.026Z,6.70
2017-08-05T23:25:57.373Z,7.03
2017-08-05T23:28:25.745Z,6.93
2017-08-05T23:30:54.898Z,6.60
2017-08-05T23:33:23.262Z,7.57
2017-08-05T23:35:51.616Z,6.80
2017-08-05T23:38:20.291Z,5.90
2017-08-05T23:40:48.666Z,5.70
2017-08-05T23:43:17.017Z,5.27
2017-08-05T23:45:45.950Z,5.97
2017-08-05T23:48:14.324Z,4.80
2017-08-05T23:50:42.685Z,5.13
2017-08-05T23:53:11.586Z,5.23
2017-08-05T23:55:39.948Z,5.50
2017-08-05T23:58:08.318Z,5.23
